sensor_id;sensor_type;location;lat;lon;timestamp;pressure;altitude;pressure_sealevel;temperature;humidity
39363;BME280;25088;43.238;23.110;2022-08-11T00:02:07;96642.38;;;18.68;100.00
39363;BME280;25088;43.238;23.110;2022-08-11T00:04:35;96664.22;;;18.69;100.00
39363;BME280;25088;43.238;23.110;2022-08-11T00:07:04;96642.56;;;18.57;100.00
39363;BME280;25088;43.238;23.110;2022-08-11T00:09:34;96664.44;;;18.73;100.00
39363;BME280;25088;43.238;23.110;2022-08-11T00:12:01;96664.34;;;18.78;100.00
39363;BME280;25088;43.238;23.110;2022-08-11T00:14:29;96650.69;;;18.68;100.00
39363;BME280;25088;43.238;23.110;2022-08-11T00:17:06;96653.06;;;18.74;100.00
39363;BME280;25088;43.238;23.110;2022-08-11T00:19:39;96644.75;;;18.74;100.00
39363;BME280;25088;43.238;23.110;2022-08-11T00:22:07;96642.56;;;18.57;100.00
39363;BME280;25088;43.238;23.110;2022-08-11T00:24:36;96634.38;;;18.52;100.00
39363;BME280;25088;43.238;23.110;2022-08-11T00:27:03;96656.78;;;18.70;100.00
39363;BME280;25088;43.238;23.110;2022-08-11T00:29:30;96655.66;;;18.71;100.00
39363;BME280;25088;43.238;23.110;2022-08-11T00:31:59;96655.94;;;18.69;100.00
39363;BME280;25088;43.238;23.110;2022-08-11T00:34:28;96645.09;;;18.73;100.00
39363;BME280;25088;43.238;23.110;2022-08-11T00:36:59;96655.34;;;18.72;100.00
39363;BME280;25088;43.238;23.110;2022-08-11T00:39:25;96645.16;;;18.68;100.00
39363;BME280;25088;43.238;23.110;2022-08-11T00:42:06;96628.75;;;18.57;100.00
39363;BME280;25088;43.238;23.110;2022-08-11T00:47:21;96641.00;;;18.70;100.00
39363;BME280;25088;43.238;23.110;2022-08-11T00:50:00;96635.81;;;18.64;100.00
39363;BME280;25088;43.238;23.110;2022-08-11T01:01:26;96611.59;;;18.28;100.00
39363;BME280;25088;43.238;23.110;2022-08-11T01:04:23;96630.34;;;18.45;100.00
39363;BME280;25088;43.238;23.110;2022-08-11T01:07:24;96632.91;;;18.41;100.00
39363;BME280;25088;43.238;23.110;2022-08-11T01:10:10;96633.66;;;18.47;100.00
39363;BME280;25088;43.238;23.110;2022-08-11T01:13:08;96636.19;;;18.43;100.00
39363;BME280;25088;43.238;23.110;2022-08-11T01:15:57;96640.41;;;18.41;100.00
39363;BME280;25088;43.238;23.110;2022-08-11T01:21:17;96630.63;;;18.29;100.00
39363;BME280;25088;43.238;23.110;2022-08-11T01:30:19;96630.69;;;18.24;100.00
39363;BME280;25088;43.238;23.110;2022-08-11T01:35:58;96633.28;;;18.21;100.00
39363;BME280;25088;43.238;23.110;2022-08-11T01:47:31;96640.91;;;18.10;100.00
39363;BME280;25088;43.238;23.110;2022-08-11T01:58:55;96637.94;;;18.06;100.00
39363;BME280;25088;43.238;23.110;2022-08-11T02:06:54;96633.88;;;18.18;100.00
39363;BME280;25088;43.238;23.110;2022-08-11T02:12:56;96628.38;;;18.31;100.00
39363;BME280;25088;43.238;23.110;2022-08-11T02:15:50;96622.47;;;18.38;100.00
39363;BME280;25088;43.238;23.110;2022-08-11T02:18:23;96622.69;;;18.42;100.00
39363;BME280;25088;43.238;23.110;2022-08-11T02:21:15;96626.47;;;18.46;100.00
39363;BME280;25088;43.238;23.110;2022-08-11T02:24:15;96621.69;;;18.51;100.00
39363;BME280;25088;43.238;23.110;2022-08-11T02:26:45;96622.53;;;18.66;100.00
39363;BME280;25088;43.238;23.110;2022-08-11T02:29:26;96621.81;;;18.60;100.00
39363;BME280;25088;43.238;23.110;2022-08-11T02:32:20;96614.66;;;18.73;100.00
39363;BME280;25088;43.238;23.110;2022-08-11T02:37:50;96622.16;;;18.86;100.00
39363;BME280;25088;43.238;23.110;2022-08-11T02:40:28;96610.06;;;18.96;100.00
39363;BME280;25088;43.238;23.110;2022-08-11T02:43:09;96598.78;;;18.92;100.00
39363;BME280;25088;43.238;23.110;2022-08-11T02:46:46;96614.16;;;18.98;100.00
39363;BME280;25088;43.238;23.110;2022-08-11T02:52:04;96620.72;;;18.75;100.00
39363;BME280;25088;43.238;23.110;2022-08-11T03:00:24;96607.31;;;18.96;100.00
39363;BME280;25088;43.238;23.110;2022-08-11T03:03:09;96615.19;;;19.02;100.00
39363;BME280;25088;43.238;23.110;2022-08-11T03:11:14;96624.19;;;19.22;100.00
39363;BME280;25088;43.238;23.110;2022-08-11T03:17:27;96628.50;;;19.14;100.00
39363;BME280;25088;43.238;23.110;2022-08-11T03:26:21;96617.84;;;19.35;100.00
39363;BME280;25088;43.238;23.110;2022-08-11T03:29:10;96619.69;;;19.26;100.00
39363;BME280;25088;43.238;23.110;2022-08-11T03:31:45;96622.13;;;19.14;100.00
39363;BME280;25088;43.238;23.110;2022-08-11T03:34:22;96641.00;;;19.11;100.00
39363;BME280;25088;43.238;23.110;2022-08-11T03:37:36;96630.97;;;19.16;100.00
39363;BME280;25088;43.238;23.110;2022-08-11T03:46:05;96633.03;;;18.96;100.00
39363;BME280;25088;43.238;23.110;2022-08-11T03:48:55;96629.84;;;19.03;100.00
39363;BME280;25088;43.238;23.110;2022-08-11T03:51:59;96638.03;;;19.08;100.00
39363;BME280;25088;43.238;23.110;2022-08-11T04:08:08;96632.28;;;19.04;100.00
39363;BME280;25088;43.238;23.110;2022-08-11T04:16:46;96597.38;;;18.95;100.00
39363;BME280;25088;43.238;23.110;2022-08-11T04:34:03;96624.31;;;19.17;100.00
39363;BME280;25088;43.238;23.110;2022-08-11T04:36:56;96631.25;;;19.14;100.00
39363;BME280;25088;43.238;23.110;2022-08-11T04:57:10;96630.13;;;19.43;100.00
39363;BME280;25088;43.238;23.110;2022-08-11T05:02:57;96631.00;;;19.79;100.00
39363;BME280;25088;43.238;23.110;2022-08-11T05:08:57;96634.03;;;19.92;100.00
39363;BME280;25088;43.238;23.110;2022-08-11T05:11:52;96635.38;;;19.94;100.00
39363;BME280;25088;43.238;23.110;2022-08-11T05:14:30;96634.09;;;20.00;100.00
39363;BME280;25088;43.238;23.110;2022-08-11T05:17:24;96630.16;;;20.15;100.00
39363;BME280;25088;43.238;23.110;2022-08-11T05:20:11;96628.56;;;20.23;100.00
39363;BME280;25088;43.238;23.110;2022-08-11T05:23:00;96597.19;;;20.13;100.00
39363;BME280;25088;43.238;23.110;2022-08-11T05:25:47;96630.72;;;20.48;100.00
39363;BME280;25088;43.238;23.110;2022-08-11T05:28:59;96624.84;;;20.81;100.00
39363;BME280;25088;43.238;23.110;2022-08-11T05:31:49;96620.03;;;20.95;100.00
39363;BME280;25088;43.238;23.110;2022-08-11T05:34:43;96624.28;;;21.01;100.00
39363;BME280;25088;43.238;23.110;2022-08-11T05:40:04;96624.00;;;21.60;99.52
39363;BME280;25088;43.238;23.110;2022-08-11T05:42:50;96612.72;;;21.82;95.99
39363;BME280;25088;43.238;23.110;2022-08-11T05:45:37;96612.28;;;22.15;94.77
39363;BME280;25088;43.238;23.110;2022-08-11T05:48:21;96608.44;;;22.63;90.91
39363;BME280;25088;43.238;23.110;2022-08-11T05:51:12;96612.66;;;22.78;88.16
39363;BME280;25088;43.238;23.110;2022-08-11T05:53:58;96597.53;;;22.87;85.25
39363;BME280;25088;43.238;23.110;2022-08-11T05:56:49;96600.88;;;23.19;84.61
39363;BME280;25088;43.238;23.110;2022-08-11T05:59:19;96612.06;;;23.40;82.53
39363;BME280;25088;43.238;23.110;2022-08-11T06:01:45;96615.28;;;23.80;80.55
39363;BME280;25088;43.238;23.110;2022-08-11T06:04:23;96608.88;;;24.01;78.46
39363;BME280;25088;43.238;23.110;2022-08-11T06:06:57;96597.84;;;24.25;78.10
39363;BME280;25088;43.238;23.110;2022-08-11T06:09:27;96597.50;;;24.47;77.68
39363;BME280;25088;43.238;23.110;2022-08-11T06:11:57;96619.09;;;24.71;76.25
39363;BME280;25088;43.238;23.110;2022-08-11T06:14:24;96574.53;;;24.75;74.55
39363;BME280;25088;43.238;23.110;2022-08-11T06:16:55;96616.69;;;24.94;74.03
39363;BME280;25088;43.238;23.110;2022-08-11T06:19:21;96615.22;;;25.09;75.12
39363;BME280;25088;43.238;23.110;2022-08-11T06:21:48;96621.44;;;24.94;74.23
39363;BME280;25088;43.238;23.110;2022-08-11T06:24:17;96618.06;;;24.88;75.56
39363;BME280;25088;43.238;23.110;2022-08-11T06:26:48;96612.47;;;24.88;76.29
39363;BME280;25088;43.238;23.110;2022-08-11T06:29:14;96610.06;;;24.99;73.95
39363;BME280;25088;43.238;23.110;2022-08-11T06:31:59;96629.38;;;24.92;74.35
39363;BME280;25088;43.238;23.110;2022-08-11T06:34:52;96615.56;;;25.08;74.35
39363;BME280;25088;43.238;23.110;2022-08-11T06:37:45;96626.88;;;25.11;73.90
39363;BME280;25088;43.238;23.110;2022-08-11T06:45:56;96629.97;;;24.52;75.26
39363;BME280;25088;43.238;23.110;2022-08-11T06:48:29;96624.03;;;24.99;73.40
39363;BME280;25088;43.238;23.110;2022-08-11T06:50:59;96619.72;;;25.99;68.94
39363;BME280;25088;43.238;23.110;2022-08-11T06:53:47;96605.53;;;26.61;64.32
39363;BME280;25088;43.238;23.110;2022-08-11T06:56:14;96615.44;;;27.02;62.58
39363;BME280;25088;43.238;23.110;2022-08-11T06:59:00;96619.72;;;27.27;61.44
39363;BME280;25088;43.238;23.110;2022-08-11T07:02:05;96610.38;;;26.92;61.90
39363;BME280;25088;43.238;23.110;2022-08-11T07:04:46;96621.88;;;27.34;61.75
39363;BME280;25088;43.238;23.110;2022-08-11T07:13:42;96633.03;;;26.43;64.96
39363;BME280;25088;43.238;23.110;2022-08-11T07:23:11;96641.31;;;26.67;63.70
39363;BME280;25088;43.238;23.110;2022-08-11T07:25:58;96631.56;;;26.21;64.75
39363;BME280;25088;43.238;23.110;2022-08-11T07:28:46;96634.38;;;26.09;65.98
39363;BME280;25088;43.238;23.110;2022-08-11T07:31:36;96626.94;;;26.41;64.87
39363;BME280;25088;43.238;23.110;2022-08-11T07:36:50;96642.47;;;26.38;64.53
39363;BME280;25088;43.238;23.110;2022-08-11T07:39:22;96636.63;;;27.47;60.52
39363;BME280;25088;43.238;23.110;2022-08-11T07:41:50;96631.19;;;27.86;57.87
39363;BME280;25088;43.238;23.110;2022-08-11T07:44:17;96635.41;;;27.79;58.72
39363;BME280;25088;43.238;23.110;2022-08-11T07:46:46;96639.81;;;27.45;59.21
39363;BME280;25088;43.238;23.110;2022-08-11T07:49:33;96634.91;;;27.42;60.00
39363;BME280;25088;43.238;23.110;2022-08-11T07:52:18;96639.97;;;27.52;59.55
39363;BME280;25088;43.238;23.110;2022-08-11T07:55:04;96627.56;;;27.53;59.28
39363;BME280;25088;43.238;23.110;2022-08-11T07:57:31;96635.47;;;27.32;61.49
39363;BME280;25088;43.238;23.110;2022-08-11T08:00:16;96621.56;;;26.92;60.71
39363;BME280;25088;43.238;23.110;2022-08-11T08:03:01;96635.88;;;26.59;62.60
39363;BME280;25088;43.238;23.110;2022-08-11T08:05:47;96629.72;;;26.53;63.86
39363;BME280;25088;43.238;23.110;2022-08-11T08:08:31;96608.75;;;26.35;64.73
39363;BME280;25088;43.238;23.110;2022-08-11T08:11:18;96591.28;;;25.97;65.78
39363;BME280;25088;43.238;23.110;2022-08-11T08:14:05;96615.91;;;25.67;68.21
39363;BME280;25088;43.238;23.110;2022-08-11T08:16:50;96628.47;;;25.73;68.06
39363;BME280;25088;43.238;23.110;2022-08-11T08:19:35;96611.75;;;25.61;67.67
39363;BME280;25088;43.238;23.110;2022-08-11T08:22:01;96637.00;;;25.40;69.44
39363;BME280;25088;43.238;23.110;2022-08-11T08:24:27;96631.41;;;25.40;68.20
39363;BME280;25088;43.238;23.110;2022-08-11T08:26:54;96614.88;;;25.35;68.37
39363;BME280;25088;43.238;23.110;2022-08-11T08:29:35;96640.25;;;25.55;67.33
39363;BME280;25088;43.238;23.110;2022-08-11T08:32:20;96623.59;;;25.46;67.70
39363;BME280;25088;43.238;23.110;2022-08-11T08:34:48;96632.81;;;25.59;68.47
39363;BME280;25088;43.238;23.110;2022-08-11T08:37:17;96639.22;;;25.59;66.97
39363;BME280;25088;43.238;23.110;2022-08-11T08:39:45;96638.16;;;25.39;67.77
39363;BME280;25088;43.238;23.110;2022-08-11T08:42:12;96649.13;;;25.32;66.73
39363;BME280;25088;43.238;23.110;2022-08-11T08:44:44;96642.13;;;25.38;66.78
39363;BME280;25088;43.238;23.110;2022-08-11T08:47:15;96649.34;;;25.39;66.67
39363;BME280;25088;43.238;23.110;2022-08-11T08:49:47;96643.88;;;25.18;68.15
39363;BME280;25088;43.238;23.110;2022-08-11T08:52:17;96657.19;;;25.00;69.75
39363;BME280;25088;43.238;23.110;2022-08-11T08:54:44;96651.81;;;24.95;70.87
39363;BME280;25088;43.238;23.110;2022-08-11T08:57:13;96651.00;;;24.83;72.58
39363;BME280;25088;43.238;23.110;2022-08-11T08:59:44;96649.59;;;24.77;72.39
39363;BME280;25088;43.238;23.110;2022-08-11T09:02:11;96647.03;;;24.84;71.71
39363;BME280;25088;43.238;23.110;2022-08-11T09:04:39;96644.69;;;24.86;70.53
39363;BME280;25088;43.238;23.110;2022-08-11T09:07:09;96651.06;;;25.07;71.87
39363;BME280;25088;43.238;23.110;2022-08-11T09:09:49;96650.13;;;25.15;71.59
39363;BME280;25088;43.238;23.110;2022-08-11T09:12:16;96651.69;;;25.49;70.56
39363;BME280;25088;43.238;23.110;2022-08-11T09:14:46;96639.34;;;25.75;69.14
39363;BME280;25088;43.238;23.110;2022-08-11T09:17:30;96650.03;;;26.38;64.47
39363;BME280;25088;43.238;23.110;2022-08-11T09:20:05;96639.03;;;27.64;58.74
39363;BME280;25088;43.238;23.110;2022-08-11T09:22:34;96635.00;;;27.30;58.73
39363;BME280;25088;43.238;23.110;2022-08-11T09:25:19;96627.88;;;26.89;59.57
39363;BME280;25088;43.238;23.110;2022-08-11T09:28:05;96639.56;;;26.91;60.61
39363;BME280;25088;43.238;23.110;2022-08-11T09:30:34;96638.88;;;27.10;59.74
39363;BME280;25088;43.238;23.110;2022-08-11T09:33:03;96636.34;;;28.38;55.96
39363;BME280;25088;43.238;23.110;2022-08-11T09:35:33;96623.16;;;29.46;51.43
39363;BME280;25088;43.238;23.110;2022-08-11T09:38:01;96634.75;;;28.99;50.90
39363;BME280;25088;43.238;23.110;2022-08-11T09:40:47;96632.16;;;28.48;52.47
39363;BME280;25088;43.238;23.110;2022-08-11T09:43:18;96635.88;;;27.81;54.65
39363;BME280;25088;43.238;23.110;2022-08-11T09:46:03;96626.88;;;27.41;55.82
39363;BME280;25088;43.238;23.110;2022-08-11T09:48:34;96627.69;;;27.41;55.89
39363;BME280;25088;43.238;23.110;2022-08-11T09:51:00;96619.78;;;27.63;55.81
39363;BME280;25088;43.238;23.110;2022-08-11T09:53:31;96619.06;;;27.66;56.08
39363;BME280;25088;43.238;23.110;2022-08-11T09:55:57;96626.28;;;27.82;55.36
39363;BME280;25088;43.238;23.110;2022-08-11T09:58:23;96627.41;;;27.97;56.88
39363;BME280;25088;43.238;23.110;2022-08-11T10:00:50;96625.88;;;28.00;55.46
39363;BME280;25088;43.238;23.110;2022-08-11T10:03:21;96628.38;;;27.86;56.50
39363;BME280;25088;43.238;23.110;2022-08-11T10:05:50;96621.25;;;29.77;50.94
39363;BME280;25088;43.238;23.110;2022-08-11T10:08:40;96614.03;;;30.06;50.50
39363;BME280;25088;43.238;23.110;2022-08-11T10:11:15;96622.47;;;30.32;48.97
39363;BME280;25088;43.238;23.110;2022-08-11T10:13:46;96617.69;;;30.36;48.14
39363;BME280;25088;43.238;23.110;2022-08-11T10:16:36;96620.47;;;30.06;49.17
39363;BME280;25088;43.238;23.110;2022-08-11T10:19:04;96606.81;;;30.35;47.87
39363;BME280;25088;43.238;23.110;2022-08-11T10:21:41;96611.31;;;31.51;44.97
39363;BME280;25088;43.238;23.110;2022-08-11T10:24:09;96607.59;;;31.91;44.09
39363;BME280;25088;43.238;23.110;2022-08-11T10:26:55;96611.53;;;30.91;46.10
39363;BME280;25088;43.238;23.110;2022-08-11T10:29:37;96606.81;;;30.35;47.42
39363;BME280;25088;43.238;23.110;2022-08-11T10:32:27;96597.94;;;29.53;48.63
39363;BME280;25088;43.238;23.110;2022-08-11T10:35:11;96618.13;;;29.09;49.97
39363;BME280;25088;43.238;23.110;2022-08-11T10:37:39;96610.19;;;28.53;51.75
39363;BME280;25088;43.238;23.110;2022-08-11T10:40:06;96605.50;;;28.22;53.20
39363;BME280;25088;43.238;23.110;2022-08-11T10:42:33;96615.78;;;27.79;55.28
39363;BME280;25088;43.238;23.110;2022-08-11T10:45:18;96594.09;;;27.61;55.25
39363;BME280;25088;43.238;23.110;2022-08-11T10:48:04;96611.00;;;27.64;54.49
39363;BME280;25088;43.238;23.110;2022-08-11T10:50:31;96610.41;;;27.08;56.32
39363;BME280;25088;43.238;23.110;2022-08-11T10:53:17;96558.13;;;26.99;56.00
39363;BME280;25088;43.238;23.110;2022-08-11T10:56:02;96601.25;;;28.48;53.18
39363;BME280;25088;43.238;23.110;2022-08-11T10:58:46;96570.41;;;28.32;51.77
39363;BME280;25088;43.238;23.110;2022-08-11T11:01:22;96572.84;;;28.72;51.13
39363;BME280;25088;43.238;23.110;2022-08-11T11:03:49;96586.72;;;30.36;46.77
39363;BME280;25088;43.238;23.110;2022-08-11T11:06:26;96589.72;;;30.84;45.34
39363;BME280;25088;43.238;23.110;2022-08-11T11:08:57;96563.38;;;30.36;45.19
39363;BME280;25088;43.238;23.110;2022-08-11T11:11:27;96582.53;;;29.97;45.62
39363;BME280;25088;43.238;23.110;2022-08-11T11:14:18;96589.31;;;29.39;47.20
39363;BME280;25088;43.238;23.110;2022-08-11T11:17:08;96595.84;;;29.47;46.94
39363;BME280;25088;43.238;23.110;2022-08-11T11:19:57;96589.16;;;29.32;47.85
39363;BME280;25088;43.238;23.110;2022-08-11T11:22:26;96575.22;;;28.70;49.89
39363;BME280;25088;43.238;23.110;2022-08-11T11:25:19;96585.56;;;28.66;49.83
39363;BME280;25088;43.238;23.110;2022-08-11T11:27:59;96582.53;;;28.17;49.65
39363;BME280;25088;43.238;23.110;2022-08-11T11:30:47;96584.41;;;27.74;51.28
39363;BME280;25088;43.238;23.110;2022-08-11T11:36:29;96581.00;;;29.73;48.99
39363;BME280;25088;43.238;23.110;2022-08-11T11:38:58;96574.50;;;31.33;45.11
39363;BME280;25088;43.238;23.110;2022-08-11T11:41:26;96569.38;;;32.12;39.11
39363;BME280;25088;43.238;23.110;2022-08-11T11:43:55;96569.66;;;32.76;36.92
39363;BME280;25088;43.238;23.110;2022-08-11T11:46:26;96571.06;;;32.27;37.80
39363;BME280;25088;43.238;23.110;2022-08-11T11:48:53;96580.34;;;31.18;38.70
39363;BME280;25088;43.238;23.110;2022-08-11T11:51:22;96567.19;;;29.91;40.68
39363;BME280;25088;43.238;23.110;2022-08-11T11:53:48;96586.88;;;29.15;42.90
39363;BME280;25088;43.238;23.110;2022-08-11T11:56:14;96590.34;;;28.85;44.48
39363;BME280;25088;43.238;23.110;2022-08-11T11:58:40;96584.97;;;28.57;44.95
39363;BME280;25088;43.238;23.110;2022-08-11T12:01:26;96579.31;;;28.96;44.99
39363;BME280;25088;43.238;23.110;2022-08-11T12:03:53;96572.81;;;29.91;42.54
39363;BME280;25088;43.238;23.110;2022-08-11T12:06:23;96572.50;;;30.26;39.77
39363;BME280;25088;43.238;23.110;2022-08-11T12:08:55;96563.28;;;31.99;38.09
39363;BME280;25088;43.238;23.110;2022-08-11T12:11:24;96551.41;;;32.49;38.31
39363;BME280;25088;43.238;23.110;2022-08-11T12:14:09;96539.97;;;32.13;37.57
39363;BME280;25088;43.238;23.110;2022-08-11T12:16:38;96548.66;;;32.74;35.82
39363;BME280;25088;43.238;23.110;2022-08-11T12:19:11;96560.47;;;33.61;34.97
39363;BME280;25088;43.238;23.110;2022-08-11T12:21:38;96541.50;;;34.78;31.68
39363;BME280;25088;43.238;23.110;2022-08-11T12:24:24;96550.56;;;35.70;30.86
39363;BME280;25088;43.238;23.110;2022-08-11T12:27:10;96539.75;;;36.33;29.61
39363;BME280;25088;43.238;23.110;2022-08-11T12:29:51;96551.75;;;37.36;28.12
39363;BME280;25088;43.238;23.110;2022-08-11T12:32:19;96545.72;;;37.04;28.99
39363;BME280;25088;43.238;23.110;2022-08-11T12:34:46;96540.97;;;36.97;27.71
39363;BME280;25088;43.238;23.110;2022-08-11T12:37:12;96518.69;;;36.61;27.45
39363;BME280;25088;43.238;23.110;2022-08-11T12:39:46;96512.69;;;36.83;27.95
39363;BME280;25088;43.238;23.110;2022-08-11T12:42:33;96531.53;;;36.42;28.92
39363;BME280;25088;43.238;23.110;2022-08-11T12:45:18;96531.88;;;35.72;30.38
39363;BME280;25088;43.238;23.110;2022-08-11T12:48:03;96522.78;;;36.60;29.94
39363;BME280;25088;43.238;23.110;2022-08-11T12:50:53;96530.94;;;35.86;30.13
39363;BME280;25088;43.238;23.110;2022-08-11T12:53:42;96516.78;;;34.79;30.69
39363;BME280;25088;43.238;23.110;2022-08-11T12:56:10;96533.41;;;35.36;29.49
39363;BME280;25088;43.238;23.110;2022-08-11T12:58:55;96515.56;;;35.80;29.54
39363;BME280;25088;43.238;23.110;2022-08-11T13:01:40;96506.72;;;36.12;29.24
39363;BME280;25088;43.238;23.110;2022-08-11T13:04:25;96515.03;;;35.96;28.97
39363;BME280;25088;43.238;23.110;2022-08-11T13:07:11;96514.50;;;35.15;29.52
39363;BME280;25088;43.238;23.110;2022-08-11T13:09:38;96496.97;;;35.76;28.72
39363;BME280;25088;43.238;23.110;2022-08-11T13:12:05;96501.59;;;35.55;29.51
39363;BME280;25088;43.238;23.110;2022-08-11T13:14:50;96500.09;;;36.22;28.07
39363;BME280;25088;43.238;23.110;2022-08-11T13:17:16;96506.50;;;35.96;28.58
39363;BME280;25088;43.238;23.110;2022-08-11T13:19:49;96500.72;;;36.68;28.53
39363;BME280;25088;43.238;23.110;2022-08-11T13:22:17;96499.88;;;36.40;28.43
39363;BME280;25088;43.238;23.110;2022-08-11T13:24:44;96487.50;;;36.20;28.53
39363;BME280;25088;43.238;23.110;2022-08-11T13:27:11;96502.31;;;36.04;28.78
39363;BME280;25088;43.238;23.110;2022-08-11T13:29:37;96499.41;;;35.73;29.11
39363;BME280;25088;43.238;23.110;2022-08-11T13:32:06;96484.97;;;35.09;29.96
39363;BME280;25088;43.238;23.110;2022-08-11T13:34:33;96497.59;;;35.53;29.47
39363;BME280;25088;43.238;23.110;2022-08-11T13:37:06;96501.13;;;36.36;28.48
39363;BME280;25088;43.238;23.110;2022-08-11T13:39:34;96491.69;;;36.73;28.32
39363;BME280;25088;43.238;23.110;2022-08-11T13:42:02;96493.34;;;36.09;28.71
39363;BME280;25088;43.238;23.110;2022-08-11T13:44:30;96488.00;;;35.36;29.42
39363;BME280;25088;43.238;23.110;2022-08-11T13:47:02;96481.66;;;35.21;29.79
39363;BME280;25088;43.238;23.110;2022-08-11T13:49:34;96482.81;;;33.69;31.38
39363;BME280;25088;43.238;23.110;2022-08-11T13:52:00;96456.84;;;32.14;32.77
39363;BME280;25088;43.238;23.110;2022-08-11T13:54:29;96474.19;;;32.16;33.14
39363;BME280;25088;43.238;23.110;2022-08-11T13:56:59;96474.22;;;32.27;33.33
39363;BME280;25088;43.238;23.110;2022-08-11T13:59:25;96482.16;;;31.89;33.78
39363;BME280;25088;43.238;23.110;2022-08-11T14:01:54;96440.47;;;31.06;35.29
39363;BME280;25088;43.238;23.110;2022-08-11T14:04:37;96486.31;;;30.55;36.42
39363;BME280;25088;43.238;23.110;2022-08-11T14:07:06;96458.53;;;30.16;36.80
39363;BME280;25088;43.238;23.110;2022-08-11T14:09:40;96471.66;;;30.38;36.42
39363;BME280;25088;43.238;23.110;2022-08-11T14:12:16;96476.91;;;30.06;37.01
39363;BME280;25088;43.238;23.110;2022-08-11T14:15:09;96483.34;;;29.47;37.74
39363;BME280;25088;43.238;23.110;2022-08-11T14:17:38;96484.06;;;29.44;38.29
39363;BME280;25088;43.238;23.110;2022-08-11T14:20:07;96454.00;;;29.74;37.30
39363;BME280;25088;43.238;23.110;2022-08-11T14:22:35;96490.38;;;31.02;36.17
39363;BME280;25088;43.238;23.110;2022-08-11T14:25:05;96480.97;;;32.01;34.43
39363;BME280;25088;43.238;23.110;2022-08-11T14:27:31;96477.03;;;31.43;35.24
39363;BME280;25088;43.238;23.110;2022-08-11T14:29:57;96477.63;;;30.71;36.03
39363;BME280;25088;43.238;23.110;2022-08-11T14:32:24;96481.66;;;29.42;38.25
39363;BME280;25088;43.238;23.110;2022-08-11T14:34:50;96482.47;;;29.43;38.81
39363;BME280;25088;43.238;23.110;2022-08-11T14:37:21;96483.84;;;29.82;38.02
39363;BME280;25088;43.238;23.110;2022-08-11T14:39:52;96482.47;;;29.69;38.17
39363;BME280;25088;43.238;23.110;2022-08-11T14:42:22;96489.69;;;29.44;38.79
39363;BME280;25088;43.238;23.110;2022-08-11T14:45:16;96478.44;;;29.44;39.03
39363;BME280;25088;43.238;23.110;2022-08-11T14:48:04;96486.09;;;29.70;38.86
39363;BME280;25088;43.238;23.110;2022-08-11T14:50:33;96480.75;;;29.91;38.44
39363;BME280;25088;43.238;23.110;2022-08-11T14:53:06;96478.97;;;30.09;38.62
39363;BME280;25088;43.238;23.110;2022-08-11T14:55:38;96479.94;;;29.91;38.45
39363;BME280;25088;43.238;23.110;2022-08-11T14:58:28;96474.94;;;30.10;38.47
39363;BME280;25088;43.238;23.110;2022-08-11T15:00:59;96462.81;;;30.40;38.25
39363;BME280;25088;43.238;23.110;2022-08-11T15:03:27;96464.94;;;30.50;38.23
39363;BME280;25088;43.238;23.110;2022-08-11T15:05:56;96459.66;;;30.45;38.06
39363;BME280;25088;43.238;23.110;2022-08-11T15:08:29;96445.06;;;29.69;40.54
39363;BME280;25088;43.238;23.110;2022-08-11T15:11:17;96457.47;;;29.38;41.69
39363;BME280;25088;43.238;23.110;2022-08-11T15:14:04;96453.53;;;29.42;41.34
39363;BME280;25088;43.238;23.110;2022-08-11T15:16:30;96439.56;;;29.19;42.03
39363;BME280;25088;43.238;23.110;2022-08-11T15:19:15;96443.09;;;28.90;43.09
39363;BME280;25088;43.238;23.110;2022-08-11T15:21:43;96442.09;;;28.78;43.40
39363;BME280;25088;43.238;23.110;2022-08-11T15:24:27;96442.63;;;28.88;43.15
39363;BME280;25088;43.238;23.110;2022-08-11T15:26:53;96449.66;;;28.97;43.07
39363;BME280;25088;43.238;23.110;2022-08-11T15:30:00;96445.88;;;29.13;43.25
39363;BME280;25088;43.238;23.110;2022-08-11T15:32:46;96447.78;;;29.05;43.08
39363;BME280;25088;43.238;23.110;2022-08-11T15:35:31;96432.84;;;28.78;42.36
39363;BME280;25088;43.238;23.110;2022-08-11T15:38:18;96421.69;;;28.58;43.02
39363;BME280;25088;43.238;23.110;2022-08-11T15:40:44;96439.19;;;28.29;43.99
39363;BME280;25088;43.238;23.110;2022-08-11T15:43:33;96427.16;;;28.05;44.62
39363;BME280;25088;43.238;23.110;2022-08-11T15:46:50;96431.50;;;28.03;44.64
39363;BME280;25088;43.238;23.110;2022-08-11T15:49:22;96437.44;;;27.78;45.56
39363;BME280;25088;43.238;23.110;2022-08-11T15:52:01;96430.50;;;27.72;45.88
39363;BME280;25088;43.238;23.110;2022-08-11T15:54:29;96415.47;;;27.65;45.62
39363;BME280;25088;43.238;23.110;2022-08-11T15:56:57;96436.09;;;27.72;46.28
39363;BME280;25088;43.238;23.110;2022-08-11T15:59:27;96444.69;;;27.64;47.42
39363;BME280;25088;43.238;23.110;2022-08-11T16:02:15;96437.16;;;27.48;48.55
39363;BME280;25088;43.238;23.110;2022-08-11T16:05:01;96410.78;;;27.14;50.03
39363;BME280;25088;43.238;23.110;2022-08-11T16:07:32;96435.84;;;27.07;50.66
39363;BME280;25088;43.238;23.110;2022-08-11T16:12:28;96453.50;;;26.60;51.89
39363;BME280;25088;43.238;23.110;2022-08-11T16:15:04;96451.81;;;26.56;51.90
39363;BME280;25088;43.238;23.110;2022-08-11T16:17:53;96444.06;;;26.21;52.64
39363;BME280;25088;43.238;23.110;2022-08-11T16:20:22;96446.91;;;25.93;53.39
39363;BME280;25088;43.238;23.110;2022-08-11T16:22:50;96407.22;;;25.47;53.61
39363;BME280;25088;43.238;23.110;2022-08-11T16:25:19;96450.72;;;25.60;53.98
39363;BME280;25088;43.238;23.110;2022-08-11T16:27:51;96443.94;;;25.33;54.93
39363;BME280;25088;43.238;23.110;2022-08-11T16:30:18;96452.03;;;25.22;55.03